Time;durP1;ratioP1;P1;durP2;ratioP2;P2;SDS_P1;SDS_P2;PMS_P1;PMS_P2;Temp;Humidity;BMP_temperature;BMP_pressure;BME280_temperature;BME280_humidity;BME280_pressure;Samples;Min_cycle;Max_cycle;Signal;HPM_P1;HPM_P2
2022/05/28 00:01:38;;;;;;;4.50;1.58;;;14.10;86.10;;;;;;5040906;28;20053;-57
2022/05/28 00:04:05;;;;;;;9.68;1.08;;;14.20;86.50;;;;;;5035341;28;20049;-57
2022/05/28 00:06:33;;;;;;;9.10;1.75;;;14.10;86.90;;;;;;5041228;28;20052;-54
2022/05/28 00:09:00;;;;;;;6.70;1.13;;;14.10;87.00;;;;;;5050004;28;20136;-61
2022/05/28 00:11:29;;;;;;;4.93;1.10;;;14.10;87.20;;;;;;5049904;28;20064;-56
2022/05/28 00:13:56;;;;;;;6.60;1.50;;;14.10;87.30;;;;;;5050122;28;20411;-57
2022/05/28 00:16:23;;;;;;;6.43;1.33;;;14.10;87.00;;;;;;5044325;28;20124;-56
2022/05/28 00:18:52;;;;;;;7.57;1.73;;;14.00;87.80;;;;;;5041388;28;20156;-56
2022/05/28 00:21:19;;;;;;;4.60;1.55;;;14.00;87.50;;;;;;5050058;28;20076;-64
2022/05/28 00:23:45;;;;;;;11.88;2.47;;;14.00;88.00;;;;;;5050083;28;20545;-58
2022/05/28 00:26:13;;;;;;;5.65;1.10;;;14.00;88.10;;;;;;5049218;28;20224;-57
2022/05/28 00:28:40;;;;;;;5.38;2.03;;;14.00;87.90;;;;;;5049585;28;20049;-57
2022/05/28 00:31:07;;;;;;;8.40;1.52;;;13.90;88.30;;;;;;5044712;28;20141;-55
2022/05/28 00:33:34;;;;;;;3.85;1.02;;;14.00;88.50;;;;;;5041543;28;20480;-58
2022/05/28 00:36:01;;;;;;;6.30;1.38;;;13.90;88.50;;;;;;5049369;28;20084;-58
2022/05/28 00:38:27;;;;;;;9.95;2.85;;;13.90;88.80;;;;;;5049522;28;20140;-57
2022/05/28 00:40:56;;;;;;;9.23;1.70;;;13.90;88.90;;;;;;5040583;28;20627;-57
2022/05/28 00:43:23;;;;;;;4.03;1.42;;;13.90;89.60;;;;;;4699149;28;10000127;-57
2022/05/28 00:45:51;;;;;;;5.82;1.70;;;13.90;89.50;;;;;;5051991;28;20053;-57
2022/05/28 00:48:22;;;;;;;10.98;1.77;;;13.90;89.90;;;;;;5038225;28;20092;-58
2022/05/28 00:50:49;;;;;;;8.00;1.50;;;13.90;90.20;;;;;;5033339;28;20133;-58
2022/05/28 00:53:15;;;;;;;4.70;1.67;;;13.80;90.00;;;;;;5029264;28;20136;-57
2022/05/28 00:55:42;;;;;;;6.07;1.40;;;13.80;90.30;;;;;;5028211;28;20093;-57
2022/05/28 00:58:09;;;;;;;3.63;1.40;;;13.80;90.50;;;;;;5029419;28;20133;-55
2022/05/28 01:00:37;;;;;;;5.40;1.77;;;13.80;90.60;;;;;;5042032;28;20076;-57
2022/05/28 01:03:19;;;;;;;4.78;1.27;;;13.70;90.70;;;;;;5047159;28;20080;-56
2022/05/28 01:05:46;;;;;;;4.53;1.63;;;13.70;91.80;;;;;;5047666;28;20084;-55
2022/05/28 01:08:50;;;;;;;9.27;1.40;;;13.60;91.00;;;;;;5048835;28;20544;-58
2022/05/28 01:11:28;;;;;;;5.93;1.05;;;13.60;92.00;;;;;;5023030;28;20136;-55
2022/05/28 01:14:07;;;;;;;5.28;1.50;;;13.50;91.40;;;;;;5027782;28;20453;-58
2022/05/28 01:16:43;;;;;;;8.18;1.50;;;13.50;92.70;;;;;;5039483;28;20084;-58
2022/05/28 01:19:28;;;;;;;6.75;1.20;;;13.40;92.70;;;;;;5033633;28;20128;-56
2022/05/28 01:22:25;;;;;;;4.38;1.38;;;13.40;92.90;;;;;;5028406;28;20172;-56
2022/05/28 01:25:11;;;;;;;4.30;1.13;;;13.40;93.30;;;;;;5027615;28;20079;-56
2022/05/28 01:27:39;;;;;;;4.78;1.75;;;13.40;93.60;;;;;;5028525;28;20579;-56
2022/05/28 01:30:08;;;;;;;4.55;1.25;;;13.30;93.00;;;;;;5027998;28;20041;-56
2022/05/28 01:32:34;;;;;;;5.43;1.00;;;13.20;93.40;;;;;;5039179;28;20071;-55
2022/05/28 01:35:05;;;;;;;7.97;1.55;;;13.10;92.80;;;;;;5027182;28;20515;-56
2022/05/28 01:37:32;;;;;;;5.00;1.70;;;13.10;93.00;;;;;;5031197;28;20075;-56
2022/05/28 01:40:00;;;;;;;4.88;1.77;;;13.20;92.80;;;;;;5048149;28;20119;-58
2022/05/28 01:42:26;;;;;;;4.90;0.80;;;13.00;93.70;;;;;;5046929;28;20499;-57
2022/05/28 01:44:53;;;;;;;8.50;3.58;;;13.00;93.00;;;;;;5046796;28;20487;-56
2022/05/28 01:47:20;;;;;;;10.23;1.23;;;13.00;92.90;;;;;;5040372;28;20535;-61
2022/05/28 01:49:47;;;;;;;5.18;1.20;;;13.00;93.00;;;;;;5027212;28;20124;-57
2022/05/28 01:52:14;;;;;;;13.93;2.65;;;12.90;93.00;;;;;;5037223;28;20085;-55
2022/05/28 01:54:43;;;;;;;5.15;1.15;;;12.80;93.10;;;;;;5048092;28;20059;-56
2022/05/28 01:57:10;;;;;;;6.05;1.20;;;12.70;93.70;;;;;;5048112;28;20131;-56
2022/05/28 01:59:37;;;;;;;5.38;1.00;;;12.60;93.40;;;;;;5046882;28;20477;-57
2022/05/28 02:02:06;;;;;;;6.20;1.42;;;12.60;93.40;;;;;;5046234;28;20766;-55
2022/05/28 02:04:34;;;;;;;4.97;0.85;;;12.60;94.10;;;;;;5046528;28;20048;-56
2022/05/28 02:07:03;;;;;;;6.32;1.33;;;12.50;93.70;;;;;;5046374;28;20168;-56
2022/05/28 02:09:55;;;;;;;6.47;1.83;;;12.50;93.70;;;;;;5047659;28;20053;-57
2022/05/28 02:12:26;;;;;;;4.47;1.33;;;12.50;95.10;;;;;;5046257;28;20084;-56
2022/05/28 02:15:17;;;;;;;4.28;1.33;;;12.60;94.30;;;;;;5047347;28;20563;-56
2022/05/28 02:18:10;;;;;;;6.40;1.35;;;12.50;94.80;;;;;;5039085;28;20643;-56
2022/05/28 02:20:48;;;;;;;11.45;1.40;;;12.50;95.20;;;;;;5027525;28;20136;-56
2022/05/28 02:23:44;;;;;;;3.13;1.00;;;12.50;94.90;;;;;;5026408;28;20562;-57
2022/05/28 02:26:30;;;;;;;8.38;1.33;;;12.30;95.80;;;;;;5059468;28;20085;-57
2022/05/28 02:28:59;;;;;;;4.55;1.20;;;12.30;94.70;;;;;;5026437;28;20134;-56
2022/05/28 02:31:27;;;;;;;3.88;1.25;;;12.30;95.10;;;;;;5032621;28;20045;-56
2022/05/28 02:33:54;;;;;;;6.30;1.30;;;12.30;94.70;;;;;;5036003;28;20057;-57
2022/05/28 02:36:21;;;;;;;6.30;1.25;;;12.20;95.20;;;;;;5027430;28;20462;-56
2022/05/28 02:38:48;;;;;;;6.22;1.20;;;12.10;94.90;;;;;;5029931;28;20088;-57
2022/05/28 02:41:15;;;;;;;6.60;1.38;;;12.20;94.90;;;;;;5041060;28;20107;-58
2022/05/28 02:43:42;;;;;;;7.60;1.27;;;12.20;95.10;;;;;;5032132;28;20142;-56
2022/05/28 02:46:08;;;;;;;9.23;1.80;;;12.30;94.90;;;;;;5030550;28;20132;-55
2022/05/28 02:48:36;;;;;;;3.97;0.98;;;12.20;95.10;;;;;;5039628;28;20049;-56
2022/05/28 02:51:13;;;;;;;5.85;1.10;;;12.20;95.60;;;;;;5035679;28;20160;-57
2022/05/28 02:53:42;;;;;;;7.22;1.88;;;12.20;95.30;;;;;;5046332;28;20057;-57
2022/05/28 02:56:09;;;;;;;9.00;1.30;;;12.20;95.20;;;;;;5047610;28;20091;-53
2022/05/28 02:58:37;;;;;;;5.28;1.40;;;12.10;96.00;;;;;;5047563;28;20045;-55
2022/05/28 03:01:24;;;;;;;4.18;1.17;;;12.00;95.40;;;;;;5046179;28;20140;-56
2022/05/28 03:03:51;;;;;;;6.93;1.67;;;11.90;96.60;;;;;;5047516;28;20049;-57
2022/05/28 03:06:17;;;;;;;6.78;1.58;;;11.80;96.10;;;;;;5047403;28;20482;-56
2022/05/28 03:08:45;;;;;;;8.80;1.15;;;11.90;96.10;;;;;;5045998;28;20088;-55
2022/05/28 03:11:11;;;;;;;9.40;1.88;;;11.90;95.90;;;;;;5047369;28;20493;-55
2022/05/28 03:13:39;;;;;;;8.85;1.27;;;12.00;95.80;;;;;;5045958;28;20480;-56
2022/05/28 03:16:05;;;;;;;8.30;1.33;;;12.10;95.60;;;;;;5044646;28;20128;-57
2022/05/28 03:18:32;;;;;;;5.95;0.98;;;12.00;95.40;;;;;;5041307;28;20052;-56
2022/05/28 03:20:59;;;;;;;6.63;1.05;;;12.00;95.20;;;;;;5046410;28;20080;-55
2022/05/28 03:23:26;;;;;;;5.40;1.25;;;12.10;95.10;;;;;;5045718;28;20091;-56
2022/05/28 03:25:53;;;;;;;4.28;1.35;;;12.00;95.00;;;;;;5047053;28;20084;-55
2022/05/28 03:28:20;;;;;;;5.28;1.20;;;12.10;95.10;;;;;;5050006;28;20471;-57
2022/05/28 03:30:46;;;;;;;22.77;2.20;;;12.10;95.00;;;;;;5046429;28;20047;-57
2022/05/28 03:33:13;;;;;;;5.13;1.08;;;12.10;95.10;;;;;;5039803;28;20053;-56
2022/05/28 03:35:40;;;;;;;8.77;1.30;;;12.10;95.20;;;;;;5031084;28;20486;-56
2022/05/28 03:38:07;;;;;;;7.13;1.20;;;12.00;95.10;;;;;;5031067;28;20423;-60
2022/05/28 03:40:34;;;;;;;6.45;1.35;;;12.10;95.00;;;;;;5030915;28;20073;-55
2022/05/28 03:43:01;;;;;;;12.65;1.17;;;12.10;95.00;;;;;;5029687;28;20092;-56
2022/05/28 03:45:28;;;;;;;2.65;0.73;;;12.00;95.10;;;;;;5031587;28;20037;-59
2022/05/28 03:47:55;;;;;;;4.97;1.00;;;12.00;95.40;;;;;;5045829;28;20136;-57
2022/05/28 03:50:22;;;;;;;9.00;1.30;;;12.00;95.30;;;;;;5049696;28;20127;-57
2022/05/28 03:52:49;;;;;;;10.23;1.38;;;12.00;95.30;;;;;;5050448;28;20468;-56
2022/05/28 03:55:16;;;;;;;6.53;1.77;;;12.00;95.30;;;;;;5050413;28;20112;-55
2022/05/28 03:57:45;;;;;;;8.95;1.75;;;12.00;95.50;;;;;;5050635;28;20089;-55
2022/05/28 04:00:13;;;;;;;5.45;1.20;;;12.00;95.60;;;;;;5050407;28;20045;-56
2022/05/28 04:02:39;;;;;;;3.03;1.20;;;11.80;95.70;;;;;;5038767;28;20573;-54
2022/05/28 04:05:07;;;;;;;2.67;1.10;;;11.80;96.00;;;;;;5030224;28;20099;-54
2022/05/28 04:07:33;;;;;;;3.80;0.95;;;11.70;96.10;;;;;;5030439;28;20132;-56
2022/05/28 04:10:00;;;;;;;6.13;1.48;;;11.70;96.30;;;;;;5033087;28;20136;-56
2022/05/28 04:12:27;;;;;;;5.63;1.10;;;11.80;96.50;;;;;;5050344;28;20045;-55
2022/05/28 04:14:54;;;;;;;5.88;1.27;;;11.70;96.70;;;;;;5050226;28;20707;-56
2022/05/28 04:17:20;;;;;;;9.77;2.60;;;11.70;96.80;;;;;;5038011;28;20077;-56
2022/05/28 04:19:47;;;;;;;3.08;0.85;;;11.80;97.00;;;;;;5050236;28;20055;-57
2022/05/28 04:22:14;;;;;;;5.40;1.52;;;11.70;96.90;;;;;;5048385;28;20106;-56
2022/05/28 04:24:41;;;;;;;8.27;1.38;;;11.70;96.90;;;;;;5050440;28;20041;-57
2022/05/28 04:27:08;;;;;;;5.22;1.50;;;11.60;97.40;;;;;;5050080;28;20056;-57
2022/05/28 04:29:34;;;;;;;9.60;1.88;;;11.60;97.30;;;;;;5049956;28;20512;-56
2022/05/28 04:32:02;;;;;;;5.70;1.40;;;11.60;97.50;;;;;;5048777;28;20415;-55
2022/05/28 04:34:28;;;;;;;5.88;1.30;;;11.50;97.60;;;;;;5049685;28;20498;-58
2022/05/28 04:36:55;;;;;;;5.40;1.10;;;11.40;97.80;;;;;;5048464;28;20091;-58
2022/05/28 04:39:22;;;;;;;9.07;1.50;;;11.40;97.80;;;;;;5049746;28;20088;-58
2022/05/28 04:41:48;;;;;;;7.38;0.90;;;11.50;98.20;;;;;;5043449;28;20084;-57
2022/05/28 04:44:15;;;;;;;8.13;1.63;;;11.40;98.20;;;;;;5035110;28;20152;-57
2022/05/28 04:46:42;;;;;;;3.70;1.10;;;11.40;98.50;;;;;;5036079;28;20087;-57
2022/05/28 04:49:09;;;;;;;4.55;1.00;;;11.40;98.10;;;;;;5040520;28;20433;-56
2022/05/28 04:51:36;;;;;;;6.22;1.25;;;11.50;98.20;;;;;;5038360;28;20559;-58
2022/05/28 04:54:02;;;;;;;2.42;1.10;;;11.50;98.20;;;;;;5029873;28;20132;-58
2022/05/28 04:56:29;;;;;;;4.63;1.02;;;11.50;98.20;;;;;;5029791;28;20135;-56
2022/05/28 04:58:56;;;;;;;8.30;0.95;;;11.50;98.40;;;;;;5029469;28;20089;-57
2022/05/28 05:01:23;;;;;;;3.60;1.52;;;11.50;98.40;;;;;;5033929;28;20045;-55
2022/05/28 05:03:50;;;;;;;10.52;1.33;;;11.60;98.40;;;;;;5039254;28;20093;-57
2022/05/28 05:06:17;;;;;;;10.63;1.38;;;11.60;98.40;;;;;;5049245;28;20053;-54
2022/05/28 05:08:44;;;;;;;8.02;1.42;;;11.60;98.60;;;;;;5049223;28;20061;-55
2022/05/28 05:11:11;;;;;;;8.25;1.25;;;11.60;99.20;;;;;;5049803;28;20080;-55
2022/05/28 05:13:38;;;;;;;4.65;1.20;;;11.60;98.60;;;;;;5048996;28;20124;-59
2022/05/28 05:16:09;;;;;;;10.93;1.95;;;11.60;98.80;;;;;;5048258;28;20565;-56
2022/05/28 05:18:37;;;;;;;15.23;1.63;;;11.60;99.10;;;;;;5042001;28;20045;-57
2022/05/28 05:21:04;;;;;;;4.65;1.50;;;11.70;98.80;;;;;;5031365;28;20088;-56
2022/05/28 05:23:30;;;;;;;6.40;1.30;;;11.60;99.30;;;;;;5048888;28;20132;-53
2022/05/28 05:25:57;;;;;;;4.35;1.25;;;11.60;99.00;;;;;;5049171;28;20060;-53
2022/05/28 05:28:24;;;;;;;10.65;1.80;;;11.70;98.80;;;;;;5048924;28;20103;-57
2022/05/28 05:30:50;;;;;;;11.65;1.85;;;11.80;99.00;;;;;;5048699;28;20084;-50
2022/05/28 05:33:17;;;;;;;10.68;1.85;;;11.90;99.10;;;;;;5048851;28;20110;-58
2022/05/28 05:35:44;;;;;;;11.27;3.55;;;11.90;98.70;;;;;;5048519;28;20564;-59
2022/05/28 05:38:11;;;;;;;9.30;1.10;;;11.90;98.80;;;;;;5048774;28;20052;-56
2022/05/28 05:40:37;;;;;;;9.07;1.30;;;12.00;98.90;;;;;;5048480;28;20052;-56
2022/05/28 05:43:04;;;;;;;18.80;3.75;;;12.00;98.80;;;;;;5047401;28;20091;-56
2022/05/28 05:45:31;;;;;;;8.50;1.50;;;12.00;98.80;;;;;;5048022;28;20045;-56
2022/05/28 05:47:58;;;;;;;3.38;1.05;;;12.00;98.70;;;;;;5040118;28;20072;-55
2022/05/28 05:50:25;;;;;;;4.60;0.95;;;11.90;98.70;;;;;;5017311;28;20132;-56
2022/05/28 05:52:52;;;;;;;9.10;1.75;;;12.00;98.70;;;;;;5039182;28;20095;-55
2022/05/28 05:55:18;;;;;;;2.90;1.00;;;12.00;98.70;;;;;;5048420;28;20136;-58
2022/05/28 05:57:45;;;;;;;15.18;2.55;;;12.00;98.50;;;;;;5048305;28;20047;-56
2022/05/28 06:00:12;;;;;;;9.98;1.45;;;12.00;98.60;;;;;;5044129;28;20132;-56
2022/05/28 06:02:39;;;;;;;9.38;1.35;;;12.10;98.70;;;;;;5036854;28;20045;-56
2022/05/28 06:05:07;;;;;;;4.82;1.02;;;12.20;98.70;;;;;;5034327;28;20168;-56
2022/05/28 06:07:33;;;;;;;7.38;1.40;;;12.10;98.50;;;;;;5048147;28;20579;-58
2022/05/28 06:10:00;;;;;;;4.43;1.13;;;12.10;98.60;;;;;;5047881;28;20148;-53
2022/05/28 06:12:27;;;;;;;5.60;1.88;;;12.10;98.70;;;;;;5046916;28;20135;-55
2022/05/28 06:14:53;;;;;;;6.03;1.20;;;12.20;98.90;;;;;;5048091;28;20091;-53
2022/05/28 06:17:20;;;;;;;8.10;2.47;;;12.30;98.50;;;;;;5040580;28;20136;-52
2022/05/28 06:19:51;;;;;;;8.68;1.30;;;12.30;98.50;;;;;;5037283;28;20126;-56
2022/05/28 06:22:18;;;;;;;4.53;1.10;;;12.40;98.40;;;;;;5047733;28;20080;-55
2022/05/28 06:24:45;;;;;;;9.40;1.45;;;12.40;98.50;;;;;;5047812;28;20095;-54
2022/05/28 06:27:13;;;;;;;5.95;1.00;;;12.50;98.30;;;;;;5047720;28;20063;-56
2022/05/28 06:29:40;;;;;;;7.85;1.90;;;12.50;98.30;;;;;;5047685;28;20084;-57
2022/05/28 06:32:07;;;;;;;6.82;1.10;;;12.60;98.30;;;;;;5042499;28;20049;-57
2022/05/28 06:34:35;;;;;;;6.57;1.00;;;12.60;98.10;;;;;;5038799;28;20046;-55
2022/05/28 06:37:02;;;;;;;7.53;1.10;;;12.60;98.50;;;;;;5047654;28;20204;-58
2022/05/28 06:39:28;;;;;;;7.55;1.63;;;12.60;98.40;;;;;;5047568;28;20088;-56
2022/05/28 06:41:55;;;;;;;6.00;1.73;;;12.70;98.20;;;;;;5041100;28;20132;-57
2022/05/28 06:44:22;;;;;;;5.10;1.00;;;12.70;98.20;;;;;;5035765;28;20141;-56
2022/05/28 06:46:49;;;;;;;9.93;1.35;;;12.80;98.20;;;;;;5036478;28;20084;-57
2022/05/28 06:49:16;;;;;;;4.20;0.70;;;12.80;98.20;;;;;;5040849;28;20144;-57
2022/05/28 06:51:43;;;;;;;2.85;0.82;;;12.70;98.40;;;;;;5030442;28;20052;-57
2022/05/28 06:54:10;;;;;;;4.85;1.08;;;12.70;98.30;;;;;;5046080;28;20053;-53
2022/05/28 06:56:36;;;;;;;9.15;2.28;;;12.80;98.20;;;;;;5047327;28;20048;-56
2022/05/28 06:59:03;;;;;;;7.40;1.13;;;12.80;98.00;;;;;;5046375;28;20111;-56
2022/05/28 07:01:34;;;;;;;7.30;1.25;;;12.80;98.00;;;;;;5036289;28;20405;-57
2022/05/28 07:04:01;;;;;;;6.15;1.45;;;12.80;98.40;;;;;;5043726;28;20184;-57
2022/05/28 07:06:29;;;;;;;6.60;1.02;;;12.90;98.10;;;;;;5051973;28;20131;-58
2022/05/28 07:08:56;;;;;;;10.75;1.98;;;13.00;98.30;;;;;;5048346;28;20061;-58
2022/05/28 07:11:22;;;;;;;10.05;1.38;;;13.00;98.10;;;;;;5052949;28;20044;-57
2022/05/28 07:13:49;;;;;;;8.60;1.25;;;13.10;98.10;;;;;;5051577;28;20084;-55
2022/05/28 07:16:16;;;;;;;4.68;1.00;;;13.10;97.90;;;;;;5047085;28;20045;-57
2022/05/28 07:18:44;;;;;;;7.30;1.42;;;13.20;97.90;;;;;;5045298;28;20053;-57
2022/05/28 07:21:11;;;;;;;5.95;1.30;;;13.20;97.90;;;;;;5039241;28;20072;-57
2022/05/28 07:23:38;;;;;;;5.95;1.40;;;13.30;97.90;;;;;;5031774;28;20049;-58
2022/05/28 07:26:09;;;;;;;5.35;0.98;;;13.30;97.80;;;;;;5032149;28;20081;-57
2022/05/28 07:28:37;;;;;;;6.78;1.75;;;13.30;97.80;;;;;;5031810;28;20107;-57
2022/05/28 07:31:05;;;;;;;2.95;0.95;;;13.20;97.60;;;;;;5040114;28;20047;-57
2022/05/28 07:33:34;;;;;;;12.40;1.98;;;13.30;97.90;;;;;;5047651;28;20468;-58
2022/05/28 07:36:01;;;;;;;8.95;1.88;;;13.30;97.90;;;;;;5043404;28;20790;-56
2022/05/28 07:38:28;;;;;;;14.43;3.50;;;13.30;97.80;;;;;;5035905;28;20088;-56
2022/05/28 07:40:55;;;;;;;5.35;1.30;;;13.40;97.70;;;;;;5031890;28;20077;-57
2022/05/28 07:43:22;;;;;;;9.02;1.35;;;13.40;97.60;;;;;;5046713;28;20052;-57
2022/05/28 07:45:49;;;;;;;3.55;1.08;;;13.50;97.80;;;;;;5044914;28;20060;-58
2022/05/28 07:48:16;;;;;;;9.90;2.20;;;13.60;97.50;;;;;;5041686;28;20045;-58
2022/05/28 07:50:43;;;;;;;7.50;1.30;;;13.70;97.50;;;;;;5045641;28;20413;-57
2022/05/28 07:53:10;;;;;;;3.08;1.15;;;13.70;97.50;;;;;;5042185;28;20128;-57
2022/05/28 07:55:37;;;;;;;10.75;3.05;;;13.70;97.20;;;;;;5031390;28;20612;-58
2022/05/28 07:58:11;;;;;;;6.85;1.88;;;13.70;97.30;;;;;;5049994;28;20490;-58
2022/05/28 08:00:39;;;;;;;6.88;1.80;;;13.70;97.60;;;;;;5050741;28;20041;-57
2022/05/28 08:03:07;;;;;;;4.55;1.23;;;13.80;97.20;;;;;;5047269;28;20049;-57
2022/05/28 08:05:34;;;;;;;9.60;1.50;;;13.70;97.00;;;;;;5048706;28;20071;-57
2022/05/28 08:08:01;;;;;;;6.25;1.98;;;13.80;97.20;;;;;;5031178;28;20091;-56
2022/05/28 08:10:29;;;;;;;8.02;1.40;;;13.90;97.00;;;;;;5032897;28;20115;-57
2022/05/28 08:13:03;;;;;;;3.72;1.10;;;14.00;97.30;;;;;;5030350;28;20073;-56
2022/05/28 08:15:30;;;;;;;6.70;1.50;;;14.10;97.20;;;;;;5046577;28;20106;-57
2022/05/28 08:17:57;;;;;;;5.28;1.08;;;14.20;97.10;;;;;;5045149;28;20129;-58
2022/05/28 08:23:08;;;;;;;6.68;1.17;;;14.20;96.90;;;;;;5041591;28;20143;-57
2022/05/28 08:23:11;;;;;;;3.92;1.42;;;14.30;96.70;;;;;;5041294;28;20124;-57
2022/05/28 08:25:39;;;;;;;3.35;1.27;;;14.30;96.30;;;;;;5030759;28;20137;-55
2022/05/28 08:28:09;;;;;;;6.18;1.75;;;14.30;96.30;;;;;;5046909;28;20045;-58
2022/05/28 08:30:38;;;;;;;7.15;1.23;;;14.30;95.70;;;;;;5041863;28;20081;-57
2022/05/28 08:33:05;;;;;;;9.02;1.55;;;14.30;96.30;;;;;;5033811;28;20099;-57
2022/05/28 08:35:32;;;;;;;9.82;1.50;;;14.40;96.30;;;;;;5041706;28;20145;-57
2022/05/28 08:38:07;;;;;;;2.60;1.27;;;14.40;96.20;;;;;;5048496;28;20134;-59
2022/05/28 08:40:39;;;;;;;4.93;1.30;;;14.50;95.50;;;;;;5040108;28;20120;-58
2022/05/28 08:43:06;;;;;;;7.93;1.70;;;14.60;95.80;;;;;;5048610;28;20423;-57
2022/05/28 08:45:33;;;;;;;13.68;2.63;;;14.60;95.90;;;;;;5042748;28;20132;-58
2022/05/28 08:47:59;;;;;;;8.15;1.17;;;14.70;96.00;;;;;;5043654;28;20111;-57
2022/05/28 08:50:27;;;;;;;7.35;1.60;;;14.80;95.90;;;;;;5010459;28;20129;-61
2022/05/28 08:53:04;;;;;;;13.27;1.15;;;14.90;95.50;;;;;;5026823;28;20527;-57
2022/05/28 08:55:32;;;;;;;3.65;1.15;;;14.90;95.80;;;;;;5034590;28;20129;-55
2022/05/28 08:58:05;;;;;;;5.32;1.20;;;15.00;95.20;;;;;;5047106;28;20136;-58
2022/05/28 09:00:37;;;;;;;5.22;1.38;;;15.10;94.90;;;;;;5046637;28;20056;-55
2022/05/28 09:03:17;;;;;;;7.75;1.42;;;15.10;94.50;;;;;;5048184;28;20078;-57
2022/05/28 09:06:02;;;;;;;5.40;1.38;;;15.10;94.90;;;;;;5044488;28;20102;-57
2022/05/28 09:08:32;;;;;;;3.80;1.30;;;15.30;94.90;;;;;;5075880;28;20092;-58
2022/05/28 09:11:03;;;;;;;7.80;1.55;;;15.40;94.40;;;;;;5043642;28;20057;-57
2022/05/28 09:13:46;;;;;;;4.85;1.08;;;15.40;94.40;;;;;;5040488;28;20099;-58
2022/05/28 09:16:29;;;;;;;3.83;1.20;;;15.50;94.30;;;;;;5046982;28;20049;-57
2022/05/28 09:18:59;;;;;;;3.42;1.10;;;15.60;94.30;;;;;;5049353;28;20055;-57
2022/05/28 09:21:25;;;;;;;4.40;1.52;;;15.70;93.90;;;;;;5027887;28;20119;-57
2022/05/28 09:23:56;;;;;;;8.27;1.58;;;15.80;93.50;;;;;;5060564;28;20124;-59
2022/05/28 09:26:32;;;;;;;3.55;1.73;;;15.90;93.60;;;;;;5043194;28;20128;-58
2022/05/28 09:29:02;;;;;;;2.85;1.00;;;15.90;93.30;;;;;;5047512;28;20131;-58
2022/05/28 09:31:34;;;;;;;7.07;1.23;;;15.90;93.10;;;;;;5046856;28;20045;-58
2022/05/28 09:34:15;;;;;;;5.93;1.02;;;16.00;93.40;;;;;;5047299;28;20087;-58
2022/05/28 09:36:55;;;;;;;7.38;1.98;;;16.10;93.20;;;;;;5035195;28;20124;-56
2022/05/28 09:39:44;;;;;;;5.03;1.17;;;16.10;92.20;;;;;;5046773;28;20132;-57
2022/05/28 09:42:11;;;;;;;3.55;1.10;;;16.20;92.10;;;;;;5046957;28;20579;-56
2022/05/28 09:44:40;;;;;;;4.28;0.98;;;16.30;92.50;;;;;;5047264;28;20164;-57
2022/05/28 09:47:12;;;;;;;5.57;0.95;;;16.20;91.50;;;;;;5042581;28;20495;-55
2022/05/28 09:49:52;;;;;;;4.88;1.17;;;16.30;91.30;;;;;;5044095;28;20088;-56
2022/05/28 09:54:16;;;;;;;5.18;1.38;;;16.50;91.00;;;;;;5033860;28;20764;-57
2022/05/28 09:55:26;;;;;;;5.45;1.23;;;16.60;90.10;;;;;;5034202;28;20468;-56
2022/05/28 09:58:03;;;;;;;8.40;1.80;;;16.80;91.10;;;;;;5046722;28;20449;-56
2022/05/28 10:00:29;;;;;;;2.03;0.80;;;16.90;88.40;;;;;;5046621;28;20092;-56
2022/05/28 10:05:54;;;;;;;5.43;1.40;;;17.10;90.20;;;;;;5044684;28;20402;-56
2022/05/28 10:08:28;;;;;;;6.47;1.55;;;17.00;90.00;;;;;;5045221;28;20136;-55
2022/05/28 10:10:56;;;;;;;5.10;1.02;;;17.00;90.00;;;;;;5044038;28;20088;-55
2022/05/28 10:13:24;;;;;;;5.15;1.33;;;17.00;89.90;;;;;;5044682;28;20507;-57
2022/05/28 10:15:55;;;;;;;5.00;1.20;;;16.90;89.80;;;;;;5046238;28;20187;-57
2022/05/28 10:18:25;;;;;;;3.97;1.05;;;17.00;89.10;;;;;;5044595;28;20060;-59
2022/05/28 10:21:09;;;;;;;5.85;1.10;;;17.50;89.20;;;;;;5044968;28;20055;-56
2022/05/28 10:23:37;;;;;;;;;;;17.60;85.60;;;;;;5047146;28;20076;-57
2022/05/28 10:26:04;;;;;;;4.43;1.15;;;17.50;83.80;;;;;;5048163;28;19971;-54
2022/05/28 10:28:33;;;;;;;5.63;1.20;;;17.40;86.70;;;;;;5048314;28;20507;-59
2022/05/28 10:31:00;;;;;;;10.05;1.83;;;17.30;86.70;;;;;;5045622;28;20136;-57
2022/05/28 10:33:29;;;;;;;6.90;1.75;;;17.30;86.00;;;;;;5047305;28;20056;-57
2022/05/28 10:36:06;;;;;;;3.72;1.17;;;17.30;85.60;;;;;;5047938;28;20566;-57
2022/05/28 10:38:33;;;;;;;2.72;1.23;;;17.30;81.50;;;;;;5048076;28;20607;-54
2022/05/28 10:41:01;;;;;;;6.30;1.10;;;17.40;86.10;;;;;;5046768;28;20080;-54
2022/05/28 10:43:36;;;;;;;5.70;0.77;;;17.50;83.80;;;;;;5046798;28;20131;-55
2022/05/28 10:46:18;;;;;;;4.90;1.08;;;17.50;84.50;;;;;;5046827;28;20071;-56
2022/05/28 10:49:03;;;;;;;4.20;0.98;;;17.70;82.10;;;;;;5047837;28;20041;-56
2022/05/28 10:51:45;;;;;;;2.88;0.77;;;17.90;80.80;;;;;;5046665;28;20076;-53
2022/05/28 10:54:19;;;;;;;6.82;1.00;;;17.90;80.90;;;;;;5047277;28;20049;-55
2022/05/28 10:56:55;;;;;;;4.60;0.98;;;17.90;81.20;;;;;;5048046;28;20151;-54
2022/05/28 10:59:50;;;;;;;4.68;1.15;;;17.80;80.60;;;;;;5048159;28;20111;-56
2022/05/28 11:02:28;;;;;;;4.32;1.13;;;17.80;80.30;;;;;;5047581;28;20053;-59
2022/05/28 11:05:20;;;;;;;2.90;1.05;;;17.80;80.40;;;;;;5047551;28;20084;-56
2022/05/28 11:08:17;;;;;;;5.03;1.35;;;17.80;78.60;;;;;;5046709;28;20565;-52
2022/05/28 11:11:08;;;;;;;3.70;0.95;;;17.80;77.00;;;;;;5042389;28;20136;-56
2022/05/28 11:13:57;;;;;;;4.28;0.95;;;17.80;76.70;;;;;;5046652;28;20385;-53
2022/05/28 11:16:54;;;;;;;3.60;1.00;;;17.70;77.90;;;;;;5047355;28;20086;-57
2022/05/28 11:19:38;;;;;;;6.53;1.20;;;17.70;78.20;;;;;;5026531;28;20491;-58
2022/05/28 11:22:23;;;;;;;4.18;1.13;;;17.80;79.40;;;;;;5047540;28;20072;-55
2022/05/28 11:24:54;;;;;;;5.93;1.35;;;17.80;79.90;;;;;;5048113;28;20049;-54
2022/05/28 11:27:32;;;;;;;5.55;0.80;;;17.90;81.20;;;;;;5047384;28;20041;-56
2022/05/28 11:30:06;;;;;;;3.92;1.30;;;17.90;78.20;;;;;;5045890;28;20136;-58
2022/05/28 11:32:48;;;;;;;5.00;0.98;;;18.00;79.70;;;;;;5047211;28;20080;-56
2022/05/28 11:35:26;;;;;;;6.95;1.10;;;18.00;77.40;;;;;;5046130;28;20084;-57
2022/05/28 11:38:08;;;;;;;2.88;1.42;;;18.10;77.80;;;;;;5046482;28;20639;-56
2022/05/28 11:41:00;;;;;;;2.38;0.77;;;18.10;79.10;;;;;;5045685;28;20041;-56
2022/05/28 11:43:40;;;;;;;4.45;0.80;;;18.10;73.50;;;;;;5046349;28;20450;-57
2022/05/28 11:46:30;;;;;;;3.67;0.80;;;17.90;75.30;;;;;;5046280;28;20143;-52
2022/05/28 11:51:48;;;;;;;9.35;1.13;;;17.90;77.80;;;;;;5051152;28;20092;-55
2022/05/28 11:54:22;;;;;;;3.95;0.88;;;17.90;77.50;;;;;;5049789;28;20462;-54
2022/05/28 11:56:49;;;;;;;;;;;18.10;78.10;;;;;;5050063;28;20087;-57
2022/05/28 11:59:19;;;;;;;4.95;1.30;;;18.10;75.40;;;;;;5050195;28;20011;-55
2022/05/28 12:01:54;;;;;;;3.08;0.77;;;18.20;78.10;;;;;;5050085;28;20119;-57
2022/05/28 12:04:22;;;;;;;3.22;0.98;;;18.20;77.40;;;;;;5049716;28;20156;-56
2022/05/28 12:07:00;;;;;;;6.57;1.77;;;18.20;77.90;;;;;;4698664;28;10000041;-58
2022/05/28 12:09:28;;;;;;;4.45;1.25;;;18.20;76.70;;;;;;5046050;28;20053;-54
2022/05/28 12:12:16;;;;;;;2.88;1.10;;;18.10;77.20;;;;;;5030233;28;20092;-57
2022/05/28 12:14:47;;;;;;;4.10;1.25;;;18.20;76.70;;;;;;5047475;28;20610;-58
2022/05/28 12:17:17;;;;;;;5.95;2.83;;;18.30;77.30;;;;;;5047245;28;20056;-55
2022/05/28 12:19:54;;;;;;;5.93;1.13;;;18.40;76.50;;;;;;5047726;28;20164;-58
2022/05/28 12:22:22;;;;;;;5.40;1.60;;;18.50;77.40;;;;;;5046435;28;20495;-52
2022/05/28 12:24:57;;;;;;;2.58;1.10;;;18.40;76.20;;;;;;5061259;28;20056;-58
2022/05/28 12:27:24;;;;;;;6.25;1.30;;;18.40;76.60;;;;;;5047553;28;20114;-54
2022/05/28 12:30:00;;;;;;;3.85;0.90;;;18.40;76.90;;;;;;5047219;28;20057;-56
2022/05/28 12:32:29;;;;;;;4.80;1.10;;;18.30;76.80;;;;;;5047504;28;20144;-56
2022/05/28 12:35:08;;;;;;;2.85;0.70;;;18.40;77.60;;;;;;5047685;28;20088;-57
2022/05/28 12:37:35;;;;;;;4.00;1.00;;;18.40;77.50;;;;;;5066929;28;20123;-57
2022/05/28 12:40:11;;;;;;;2.53;0.77;;;18.50;77.20;;;;;;5052105;28;20052;-56
2022/05/28 12:42:37;;;;;;;4.50;1.23;;;18.60;72.90;;;;;;5046976;28;20131;-55
2022/05/28 12:45:36;;;;;;;2.40;0.60;;;18.60;74.50;;;;;;5045823;28;20084;-59
2022/05/28 12:48:26;;;;;;;7.05;1.25;;;18.80;69.30;;;;;;5047269;28;20053;-55
2022/05/28 12:51:04;;;;;;;10.80;3.53;;;18.90;67.30;;;;;;5047103;28;20084;-56
2022/05/28 12:53:59;;;;;;;4.50;1.83;;;18.90;69.30;;;;;;5046234;28;20048;-57
2022/05/28 12:56:35;;;;;;;5.53;0.90;;;19.10;71.60;;;;;;5041736;28;20048;-57
2022/05/28 12:59:28;;;;;;;3.83;0.98;;;19.20;70.30;;;;;;5046433;28;20056;-57
2022/05/28 13:02:16;;;;;;;7.07;0.95;;;19.20;69.70;;;;;;5026818;28;20092;-55
2022/05/28 13:05:07;;;;;;;4.07;1.15;;;19.00;69.90;;;;;;5035707;28;20519;-58
2022/05/28 13:07:37;;;;;;;8.40;0.93;;;19.00;73.10;;;;;;5037463;28;20053;-60
2022/05/28 13:10:18;;;;;;;5.25;1.23;;;19.10;72.00;;;;;;5046286;28;20130;-57
2022/05/28 13:13:02;;;;;;;3.53;0.90;;;19.20;71.00;;;;;;5046572;28;20053;-55